createdAt,value
2018-05-07T00:01:24.794Z,9.90
2018-05-07T00:03:51.120Z,9.90
2018-05-07T00:06:17.644Z,9.70
2018-05-07T00:08:43.840Z,9.40
2018-05-07T00:11:13.803Z,9.30
2018-05-07T00:13:40.121Z,9.20
2018-05-07T00:16:07.152Z,9.00
2018-05-07T00:18:33.493Z,8.90
2018-05-07T00:21:02.892Z,9.00
2018-05-07T00:23:29.176Z,9.00
2018-05-07T00:25:55.475Z,8.90
2018-05-07T00:28:21.871Z,9.00
2018-05-07T00:30:48.246Z,9.10
2018-05-07T00:33:14.797Z,9.10
2018-05-07T00:35:41.015Z,9.00
2018-05-07T00:38:08.030Z,9.00
2018-05-07T00:40:34.400Z,9.00
2018-05-07T00:43:00.707Z,8.80
2018-05-07T00:45:27.148Z,8.80
2018-05-07T00:47:53.711Z,8.70
2018-05-07T00:50:20.043Z,8.70
2018-05-07T00:52:46.379Z,8.50
2018-05-07T00:55:17.415Z,8.60
2018-05-07T00:57:43.764Z,8.60
2018-05-07T01:00:10.192Z,8.40
2018-05-07T01:02:36.544Z,8.40
2018-05-07T01:05:02.890Z,8.50
2018-05-07T01:07:29.215Z,8.40
2018-05-07T01:09:55.541Z,8.40
2018-05-07T01:12:21.860Z,8.30
2018-05-07T01:14:48.204Z,8.20
2018-05-07T01:17:14.621Z,8.10
2018-05-07T01:19:40.973Z,8.00
2018-05-07T01:22:07.257Z,8.00
2018-05-07T01:24:34.333Z,7.80
2018-05-07T01:27:00.725Z,7.80
2018-05-07T01:29:27.001Z,7.80
2018-05-07T01:31:54.223Z,7.90
2018-05-07T01:34:20.518Z,8.00
2018-05-07T01:36:47.667Z,8.30
2018-05-07T01:39:14.736Z,8.10
2018-05-07T01:41:41.051Z,8.10
2018-05-07T01:44:07.401Z,7.90
2018-05-07T01:46:33.764Z,7.80
2018-05-07T01:49:00.079Z,7.80
2018-05-07T01:51:26.471Z,7.80
2018-05-07T01:53:54.600Z,7.70
2018-05-07T01:56:20.913Z,7.70
2018-05-07T01:58:47.968Z,7.60
2018-05-07T02:01:15.045Z,7.50
2018-05-07T02:03:41.553Z,7.40
2018-05-07T02:06:07.850Z,7.50
2018-05-07T02:08:34.254Z,7.40
2018-05-07T02:11:01.385Z,7.40
2018-05-07T02:13:27.662Z,7.40
2018-05-07T02:15:56.310Z,7.40
2018-05-07T02:18:23.705Z,7.40
2018-05-07T02:20:50.007Z,7.30
2018-05-07T02:23:16.452Z,7.20
2018-05-07T02:25:42.806Z,7.20
2018-05-07T02:28:09.115Z,7.20
2018-05-07T02:30:36.142Z,7.10
2018-05-07T02:33:02.538Z,7.10
2018-05-07T02:35:28.943Z,7.20
2018-05-07T02:37:56.013Z,7.30
2018-05-07T02:40:22.347Z,7.30
2018-05-07T02:42:48.654Z,7.20
2018-05-07T02:45:14.980Z,7.10
2018-05-07T02:47:41.437Z,7.10
2018-05-07T02:50:07.711Z,7.00
2018-05-07T02:52:34.053Z,7.10
2018-05-07T02:55:00.409Z,7.10
2018-05-07T02:57:27.473Z,6.80
2018-05-07T02:59:54.626Z,6.70
2018-05-07T03:02:20.928Z,6.70
2018-05-07T03:04:47.236Z,6.60
2018-05-07T03:07:14.298Z,6.50
2018-05-07T03:09:40.575Z,6.40
2018-05-07T03:12:07.048Z,6.70
2018-05-07T03:14:33.279Z,6.70
2018-05-07T03:16:59.793Z,6.70
2018-05-07T03:19:26.250Z,6.60
2018-05-07T03:21:52.565Z,6.50
2018-05-07T03:24:19.046Z,6.40
2018-05-07T03:26:45.410Z,6.30
2018-05-07T03:29:11.853Z,6.30
2018-05-07T03:31:38.162Z,6.30
2018-05-07T03:34:04.509Z,6.20
2018-05-07T03:36:30.843Z,6.20
2018-05-07T03:38:57.168Z,6.10
2018-05-07T03:41:23.514Z,6.10
2018-05-07T03:43:49.823Z,6.10
2018-05-07T03:46:16.155Z,6.10
2018-05-07T03:48:42.513Z,6.10
2018-05-07T03:51:09.647Z,6.10
2018-05-07T03:53:36.000Z,6.00
2018-05-07T03:56:02.339Z,6.10
2018-05-07T03:58:28.676Z,6.10
2018-05-07T04:00:55.067Z,6.10
2018-05-07T04:03:21.411Z,6.30
2018-05-07T04:05:48.681Z,6.50
2018-05-07T04:08:15.783Z,6.50
2018-05-07T04:10:42.136Z,6.50
2018-05-07T04:13:08.592Z,6.40
2018-05-07T04:15:34.928Z,6.40
2018-05-07T04:18:13.459Z,6.30
2018-05-07T04:20:51.972Z,6.40
2018-05-07T04:23:30.542Z,6.40
2018-05-07T04:25:57.522Z,6.40
2018-05-07T04:28:23.906Z,6.30
2018-05-07T04:30:50.379Z,6.40
2018-05-07T04:33:26.541Z,6.60
2018-05-07T04:35:53.842Z,6.70
2018-05-07T04:38:21.140Z,6.60
2018-05-07T04:40:47.524Z,6.60
2018-05-07T04:43:13.974Z,6.60
2018-05-07T04:45:41.077Z,6.50
2018-05-07T04:48:08.542Z,6.50
2018-05-07T04:50:35.607Z,6.50
2018-05-07T04:53:02.675Z,6.60
2018-05-07T04:55:29.801Z,6.80
2018-05-07T04:57:56.188Z,6.80
2018-05-07T05:00:22.532Z,7.00
2018-05-07T05:02:48.861Z,7.10
2018-05-07T05:05:15.959Z,7.30
2018-05-07T05:07:42.336Z,7.30
2018-05-07T05:10:08.713Z,7.40
2018-05-07T05:12:35.907Z,7.70
2018-05-07T05:15:07.399Z,7.60
2018-05-07T05:17:33.827Z,7.90
2018-05-07T05:20:00.134Z,8.10
2018-05-07T05:22:27.265Z,8.50
2018-05-07T05:24:53.617Z,8.50
2018-05-07T05:27:19.924Z,8.70
2018-05-07T05:29:46.347Z,8.80
2018-05-07T05:32:12.659Z,9.00
2018-05-07T05:34:39.031Z,9.20
2018-05-07T05:37:06.609Z,9.40
2018-05-07T05:39:32.902Z,9.30
2018-05-07T05:41:59.252Z,9.20
2018-05-07T05:44:25.561Z,9.00
2018-05-07T05:46:53.889Z,8.90
2018-05-07T05:49:20.279Z,9.00
2018-05-07T05:51:46.643Z,9.00
2018-05-07T05:54:13.039Z,9.30
2018-05-07T05:56:40.108Z,9.50
2018-05-07T05:59:06.503Z,9.40
2018-05-07T06:01:32.938Z,9.40
2018-05-07T06:03:59.319Z,9.30
2018-05-07T06:06:26.542Z,9.70
2018-05-07T06:08:52.984Z,9.70
2018-05-07T06:11:19.351Z,10.10
2018-05-07T06:13:45.759Z,10.50
2018-05-07T06:16:12.235Z,10.80
2018-05-07T06:18:39.261Z,10.90
2018-05-07T06:21:05.813Z,11.10
2018-05-07T06:23:33.112Z,11.20
2018-05-07T06:25:59.532Z,11.20
2018-05-07T06:28:25.922Z,12.00
2018-05-07T06:30:53.012Z,15.50
2018-05-07T06:33:19.526Z,15.50
2018-05-07T06:35:45.920Z,16.40
2018-05-07T06:38:12.249Z,17.10
2018-05-07T06:40:38.699Z,17.90
2018-05-07T06:43:05.090Z,18.20
2018-05-07T06:45:31.701Z,18.40
2018-05-07T06:48:16.395Z,18.70
2018-05-07T06:50:42.791Z,19.30
2018-05-07T06:53:09.864Z,20.00
2018-05-07T06:55:36.292Z,19.90
2018-05-07T06:58:02.614Z,20.00
2018-05-07T07:00:28.959Z,20.00
2018-05-07T07:02:55.424Z,19.90
2018-05-07T07:05:22.448Z,20.90
2018-05-07T07:07:48.751Z,20.80
2018-05-07T07:10:15.029Z,21.20
2018-05-07T07:12:41.399Z,21.30
2018-05-07T07:15:12.085Z,21.00
2018-05-07T07:17:38.395Z,20.80
2018-05-07T07:20:05.491Z,21.50
2018-05-07T07:22:31.820Z,21.40
2018-05-07T07:24:58.901Z,21.70
2018-05-07T07:27:25.163Z,21.70
2018-05-07T07:29:51.502Z,21.40
2018-05-07T07:32:17.845Z,21.40
2018-05-07T07:34:44.217Z,21.20
2018-05-07T07:37:10.567Z,21.10
2018-05-07T07:39:37.794Z,21.40
2018-05-07T07:42:06.742Z,21.40
2018-05-07T07:44:33.120Z,21.20
2018-05-07T07:47:00.209Z,21.20
2018-05-07T07:49:26.495Z,21.20
2018-05-07T07:51:52.792Z,21.50
2018-05-07T07:54:19.119Z,21.80
2018-05-07T07:56:45.428Z,21.80
2018-05-07T07:59:12.506Z,22.20
2018-05-07T08:01:39.632Z,22.30
2018-05-07T08:04:05.905Z,22.30
2018-05-07T08:06:33.063Z,21.90
2018-05-07T08:08:59.582Z,21.90
2018-05-07T08:11:25.946Z,22.00
2018-05-07T08:13:52.304Z,22.20
2018-05-07T08:16:18.629Z,22.20
2018-05-07T08:18:44.965Z,22.40
2018-05-07T08:21:12.132Z,22.60
2018-05-07T08:23:38.524Z,22.60
2018-05-07T08:26:04.957Z,22.70
2018-05-07T08:28:31.340Z,22.80
2018-05-07T08:30:58.503Z,23.10
2018-05-07T08:33:25.028Z,23.10
2018-05-07T08:35:51.473Z,23.40
2018-05-07T08:38:17.781Z,23.40
2018-05-07T08:40:44.881Z,23.50
2018-05-07T08:43:12.360Z,23.40
2018-05-07T08:45:38.729Z,23.50
2018-05-07T08:48:05.108Z,23.30
2018-05-07T08:50:32.193Z,23.20
2018-05-07T08:52:58.663Z,23.10
2018-05-07T08:55:24.958Z,23.10
2018-05-07T08:57:52.079Z,23.30
2018-05-07T09:00:18.530Z,23.30
2018-05-07T09:02:44.915Z,23.50
2018-05-07T09:05:11.962Z,23.70
2018-05-07T09:07:39.032Z,23.40
2018-05-07T09:10:06.224Z,23.20
2018-05-07T09:12:32.565Z,23.20
2018-05-07T09:14:58.905Z,23.00
2018-05-07T09:17:25.480Z,23.00
2018-05-07T09:19:51.879Z,22.90
2018-05-07T09:22:18.958Z,22.60
2018-05-07T09:24:45.375Z,22.60
2018-05-07T09:27:11.694Z,22.70
2018-05-07T09:29:37.985Z,22.80
2018-05-07T09:32:04.289Z,22.70
2018-05-07T09:34:30.609Z,22.80
2018-05-07T09:36:56.932Z,22.80
2018-05-07T09:39:23.218Z,22.70
2018-05-07T09:41:49.664Z,22.50
2018-05-07T09:44:15.948Z,22.50
2018-05-07T09:46:42.284Z,22.60
2018-05-07T09:49:08.591Z,22.70
2018-05-07T09:51:34.918Z,22.80
2018-05-07T09:54:01.206Z,22.80
2018-05-07T09:56:27.540Z,22.80
2018-05-07T09:58:56.633Z,22.80
2018-05-07T10:01:23.606Z,22.80
2018-05-07T10:03:50.661Z,22.90
2018-05-07T10:06:17.733Z,22.90
2018-05-07T10:08:45.502Z,22.80
2018-05-07T10:11:12.555Z,22.90
2018-05-07T10:13:39.699Z,22.90
2018-05-07T10:16:06.901Z,23.00
2018-05-07T10:18:33.552Z,23.00
2018-05-07T10:21:00.101Z,23.10
2018-05-07T10:23:26.604Z,23.20
2018-05-07T10:25:53.030Z,23.20
2018-05-07T10:28:19.512Z,23.00
2018-05-07T10:30:46.102Z,22.80
2018-05-07T10:33:14.287Z,22.90
2018-05-07T10:35:40.651Z,22.80
2018-05-07T10:38:07.063Z,23.10
2018-05-07T10:40:33.553Z,23.20
2018-05-07T10:43:00.077Z,23.30
2018-05-07T10:45:26.507Z,23.40
2018-05-07T10:47:53.005Z,23.60
2018-05-07T10:50:19.419Z,23.70
2018-05-07T10:52:45.891Z,23.70
2018-05-07T10:55:12.319Z,23.60
2018-05-07T10:57:38.657Z,23.70
2018-05-07T11:00:05.039Z,23.80
2018-05-07T11:02:31.365Z,23.40
2018-05-07T11:04:57.712Z,23.30
2018-05-07T11:07:24.074Z,23.30
2018-05-07T11:09:50.496Z,23.40
2018-05-07T11:12:16.853Z,23.40
2018-05-07T11:14:43.558Z,23.50
2018-05-07T11:17:09.947Z,23.50
2018-05-07T11:19:36.278Z,23.60
2018-05-07T11:22:02.653Z,23.80
2018-05-07T11:24:29.693Z,24.00
2018-05-07T11:26:56.020Z,24.00
2018-05-07T11:29:22.319Z,24.00
2018-05-07T11:31:48.656Z,24.10
2018-05-07T11:34:15.724Z,24.20
2018-05-07T11:36:42.235Z,24.20
2018-05-07T11:39:08.701Z,24.20
2018-05-07T11:41:34.993Z,24.40
2018-05-07T11:44:01.614Z,24.50
2018-05-07T11:46:28.091Z,24.60
2018-05-07T11:48:54.457Z,24.30
2018-05-07T11:51:21.608Z,24.50
2018-05-07T11:53:47.946Z,24.40
2018-05-07T11:56:14.999Z,24.60
2018-05-07T11:58:41.600Z,24.60
2018-05-07T12:01:08.012Z,24.60
2018-05-07T12:03:34.366Z,24.70
2018-05-07T12:06:00.757Z,24.70
2018-05-07T12:08:27.562Z,24.80
2018-05-07T12:10:53.902Z,24.80
2018-05-07T12:13:21.131Z,24.90
2018-05-07T12:15:47.469Z,24.90
2018-05-07T12:18:14.542Z,25.00
2018-05-07T12:20:40.968Z,25.00
2018-05-07T12:23:07.334Z,25.10
2018-05-07T12:25:33.650Z,25.20
2018-05-07T12:27:59.954Z,25.20
2018-05-07T12:30:26.337Z,25.20
2018-05-07T12:32:52.710Z,25.30
2018-05-07T12:35:19.240Z,25.20
2018-05-07T12:37:45.631Z,25.30
2018-05-07T12:40:12.618Z,25.60
2018-05-07T12:42:39.696Z,25.80
2018-05-07T12:45:06.131Z,25.80
2018-05-07T12:47:33.328Z,25.90
2018-05-07T12:49:59.613Z,25.80
2018-05-07T12:52:25.991Z,25.80
2018-05-07T12:54:52.370Z,25.70
2018-05-07T12:57:18.684Z,25.80
2018-05-07T12:59:45.041Z,25.80
2018-05-07T13:02:11.904Z,25.90
2018-05-07T13:04:38.277Z,25.80
2018-05-07T13:07:04.587Z,25.40
2018-05-07T13:09:30.972Z,25.00
2018-05-07T13:11:57.330Z,25.00
2018-05-07T13:14:23.812Z,24.90
2018-05-07T13:16:50.566Z,24.80
2018-05-07T13:19:16.953Z,24.80
2018-05-07T13:21:43.396Z,25.10
2018-05-07T13:24:09.770Z,25.20
2018-05-07T13:26:36.191Z,25.10
2018-05-07T13:29:02.640Z,25.20
2018-05-07T13:31:29.200Z,25.30
2018-05-07T13:33:56.336Z,25.10
2018-05-07T13:36:22.800Z,25.00
2018-05-07T13:38:49.180Z,25.00
2018-05-07T13:41:15.679Z,25.10
2018-05-07T13:43:43.007Z,25.00
2018-05-07T13:46:10.358Z,25.10
2018-05-07T13:48:36.729Z,25.20
2018-05-07T13:51:03.918Z,25.30
2018-05-07T13:53:31.042Z,25.40
2018-05-07T13:55:57.385Z,25.30
2018-05-07T13:58:23.782Z,25.30
2018-05-07T14:00:50.109Z,25.30
2018-05-07T14:03:16.451Z,25.10
2018-05-07T14:05:42.823Z,25.00
2018-05-07T14:08:09.942Z,25.10
2018-05-07T14:10:36.383Z,25.10
2018-05-07T14:13:02.741Z,24.90
2018-05-07T14:15:29.284Z,24.60
2018-05-07T14:17:55.690Z,24.70
2018-05-07T14:20:22.031Z,24.80
2018-05-07T14:22:48.468Z,25.00
2018-05-07T14:25:15.617Z,24.70
2018-05-07T14:27:42.038Z,24.70
2018-05-07T14:30:08.495Z,24.80
2018-05-07T14:32:35.076Z,25.00
2018-05-07T14:35:01.491Z,25.10
2018-05-07T14:37:27.888Z,25.10
2018-05-07T14:39:54.369Z,25.00
2018-05-07T14:42:20.850Z,24.80
2018-05-07T14:44:47.991Z,24.60
2018-05-07T14:47:14.330Z,24.50
2018-05-07T14:49:40.942Z,24.70
2018-05-07T14:52:07.290Z,24.80
2018-05-07T14:54:33.599Z,25.10
2018-05-07T14:57:00.762Z,24.90
2018-05-07T14:59:27.106Z,24.80
2018-05-07T15:01:53.448Z,25.00
2018-05-07T15:04:20.603Z,25.10
2018-05-07T15:06:47.721Z,25.00
2018-05-07T15:09:14.067Z,25.00
2018-05-07T15:11:40.449Z,25.00
2018-05-07T15:14:23.093Z,25.10
2018-05-07T15:16:49.440Z,25.10
2018-05-07T15:19:15.780Z,25.10
2018-05-07T15:21:42.515Z,25.20
2018-05-07T15:24:08.882Z,25.30
2018-05-07T15:26:35.239Z,25.20
2018-05-07T15:29:01.599Z,25.20
2018-05-07T15:31:28.076Z,25.20
2018-05-07T15:33:54.419Z,25.00
2018-05-07T15:36:20.852Z,24.80
2018-05-07T15:38:47.205Z,24.70
2018-05-07T15:41:13.674Z,24.60
2018-05-07T15:43:42.857Z,24.30
2018-05-07T15:46:09.352Z,24.30
2018-05-07T15:48:36.423Z,24.20
2018-05-07T15:51:02.799Z,24.10
2018-05-07T15:53:29.257Z,24.10
2018-05-07T15:55:55.664Z,24.20
2018-05-07T15:58:22.108Z,24.30
2018-05-07T16:00:48.474Z,24.40
2018-05-07T16:03:14.993Z,24.30
2018-05-07T16:05:41.317Z,24.30
2018-05-07T16:08:08.421Z,24.20
2018-05-07T16:10:34.768Z,24.20
2018-05-07T16:13:01.939Z,24.10
2018-05-07T16:15:28.372Z,24.00
2018-05-07T16:17:54.742Z,24.10
2018-05-07T16:20:21.110Z,24.20
2018-05-07T16:22:48.209Z,23.90
2018-05-07T16:25:14.476Z,23.90
2018-05-07T16:27:40.703Z,23.70
2018-05-07T16:30:06.954Z,23.60
2018-05-07T16:32:33.188Z,23.40
2018-05-07T16:34:59.396Z,23.30
2018-05-07T16:37:25.684Z,23.20
2018-05-07T16:39:51.895Z,23.10
2018-05-07T16:42:18.124Z,23.10
2018-05-07T16:44:44.398Z,23.10
2018-05-07T16:47:10.606Z,23.00
2018-05-07T16:49:36.822Z,23.00
2018-05-07T16:52:03.247Z,22.90
2018-05-07T16:54:29.508Z,22.90
2018-05-07T16:56:57.206Z,22.60
2018-05-07T16:59:23.494Z,22.60
2018-05-07T17:01:50.485Z,22.40
2018-05-07T17:04:16.707Z,22.40
2018-05-07T17:06:42.981Z,22.30
2018-05-07T17:09:09.955Z,22.20
2018-05-07T17:11:36.246Z,22.20
2018-05-07T17:14:02.484Z,22.20
2018-05-07T17:16:32.554Z,22.00
2018-05-07T17:18:59.742Z,21.80
2018-05-07T17:21:25.976Z,21.70
2018-05-07T17:23:52.225Z,21.70
2018-05-07T17:26:19.461Z,21.60
2018-05-07T17:28:45.927Z,21.50
2018-05-07T17:31:12.216Z,21.50
2018-05-07T17:33:39.531Z,21.40
2018-05-07T17:36:05.748Z,21.30
2018-05-07T17:38:32.849Z,21.10
2018-05-07T17:40:59.874Z,21.10
2018-05-07T17:43:26.858Z,20.90
2018-05-07T17:46:05.752Z,20.90
2018-05-07T17:48:44.242Z,20.90
2018-05-07T17:51:10.528Z,20.80
2018-05-07T17:53:36.821Z,20.70
2018-05-07T17:56:06.275Z,20.60
2018-05-07T17:58:33.516Z,20.50
2018-05-07T18:00:59.768Z,20.40
2018-05-07T18:03:26.771Z,20.20
2018-05-07T18:05:53.789Z,20.10
2018-05-07T18:08:20.732Z,20.00
2018-05-07T18:10:47.020Z,20.00
2018-05-07T18:13:13.268Z,19.90
2018-05-07T18:15:40.236Z,19.70
2018-05-07T18:18:07.240Z,19.60
2018-05-07T18:20:33.528Z,19.60
2018-05-07T18:23:00.593Z,19.50
2018-05-07T18:25:27.586Z,19.40
2018-05-07T18:27:53.803Z,19.40
2018-05-07T18:30:20.764Z,19.20
2018-05-07T18:32:47.067Z,19.20
2018-05-07T18:35:13.426Z,19.20
2018-05-07T18:37:39.635Z,19.10
2018-05-07T18:40:05.907Z,19.00
2018-05-07T18:42:36.409Z,18.80
2018-05-07T18:45:02.670Z,18.80
2018-05-07T18:47:28.897Z,18.70
2018-05-07T18:49:55.235Z,18.70
2018-05-07T18:52:21.476Z,18.60
2018-05-07T18:54:47.789Z,18.50
2018-05-07T18:57:15.127Z,18.40
2018-05-07T18:59:42.308Z,18.30
2018-05-07T19:02:08.599Z,18.20
2018-05-07T19:04:34.870Z,18.20
2018-05-07T19:07:01.137Z,18.10
2018-05-07T19:09:27.465Z,18.10
2018-05-07T19:11:54.475Z,17.90
2018-05-07T19:14:20.809Z,17.90
2018-05-07T19:16:47.011Z,17.80
2018-05-07T19:19:14.024Z,17.60
2018-05-07T19:21:40.300Z,17.60
2018-05-07T19:24:06.578Z,17.60
2018-05-07T19:26:33.556Z,17.50
2018-05-07T19:28:59.816Z,17.50
2018-05-07T19:31:26.038Z,17.40
2018-05-07T19:33:52.276Z,17.40
2018-05-07T19:36:18.479Z,17.30
2018-05-07T19:38:45.464Z,17.20
2018-05-07T19:41:11.806Z,17.20
2018-05-07T19:43:38.089Z,17.20
2018-05-07T19:46:04.312Z,17.20
2018-05-07T19:48:30.639Z,17.10
2018-05-07T19:50:56.864Z,17.10
2018-05-07T19:53:27.366Z,17.10
2018-05-07T19:55:53.597Z,17.00
2018-05-07T19:58:20.836Z,17.00
2018-05-07T20:00:47.214Z,17.00
2018-05-07T20:03:13.579Z,17.00
2018-05-07T20:05:40.629Z,17.00
2018-05-07T20:08:06.883Z,16.90
2018-05-07T20:10:33.863Z,16.90
2018-05-07T20:13:00.158Z,16.90
2018-05-07T20:15:26.414Z,16.90
2018-05-07T20:17:52.722Z,16.80
2018-05-07T20:20:19.011Z,16.80
2018-05-07T20:22:45.237Z,16.80
2018-05-07T20:25:11.505Z,16.80
2018-05-07T20:27:38.483Z,16.70
2018-05-07T20:30:04.750Z,16.70
2018-05-07T20:32:30.998Z,16.60
2018-05-07T20:34:57.209Z,16.50
2018-05-07T20:37:24.256Z,16.30
2018-05-07T20:39:50.523Z,16.30
2018-05-07T20:42:16.731Z,16.30
2018-05-07T20:44:43.074Z,16.20
2018-05-07T20:47:09.302Z,16.00
2018-05-07T20:49:36.286Z,15.70
2018-05-07T20:52:02.521Z,15.70
2018-05-07T20:54:28.765Z,15.60
2018-05-07T20:56:54.985Z,15.60
2018-05-07T20:59:21.252Z,15.60
2018-05-07T21:01:47.574Z,15.60
2018-05-07T21:04:14.570Z,15.40
2018-05-07T21:06:40.792Z,15.30
2018-05-07T21:09:08.102Z,15.20
2018-05-07T21:11:34.577Z,15.10
2018-05-07T21:14:01.586Z,14.80
2018-05-07T21:16:27.992Z,14.80
2018-05-07T21:18:55.006Z,14.60
2018-05-07T21:21:21.248Z,14.60
2018-05-07T21:23:47.656Z,14.50
2018-05-07T21:26:13.929Z,14.40
2018-05-07T21:28:40.170Z,14.30
2018-05-07T21:31:06.410Z,14.20
2018-05-07T21:33:33.370Z,14.00
2018-05-07T21:35:59.630Z,14.00
2018-05-07T21:38:25.966Z,14.00
2018-05-07T21:40:52.206Z,13.90
2018-05-07T21:43:18.460Z,13.80
2018-05-07T21:45:44.685Z,13.80
2018-05-07T21:48:10.937Z,13.70
2018-05-07T21:50:37.346Z,13.70
2018-05-07T21:53:03.572Z,13.50
2018-05-07T21:55:29.778Z,13.40
2018-05-07T21:57:56.067Z,13.40
2018-05-07T22:00:22.357Z,13.30
2018-05-07T22:02:48.595Z,13.30
2018-05-07T22:05:15.590Z,13.10
2018-05-07T22:07:42.933Z,13.10
2018-05-07T22:10:09.237Z,13.10
2018-05-07T22:12:35.499Z,13.10
2018-05-07T22:15:01.829Z,13.10
2018-05-07T22:17:28.036Z,13.10
2018-05-07T22:19:54.380Z,13.10
2018-05-07T22:22:20.735Z,13.00
2018-05-07T22:24:47.177Z,13.00
2018-05-07T22:27:13.580Z,12.90
2018-05-07T22:29:40.657Z,12.80
2018-05-07T22:32:07.073Z,12.70
2018-05-07T22:34:33.438Z,12.80
2018-05-07T22:36:59.830Z,12.70
2018-05-07T22:39:26.203Z,12.60
2018-05-07T22:41:53.302Z,12.50
2018-05-07T22:44:19.751Z,12.50
2018-05-07T22:46:46.135Z,12.50
2018-05-07T22:49:12.621Z,12.50
2018-05-07T22:51:39.055Z,12.50
2018-05-07T22:54:07.129Z,12.50
2018-05-07T22:56:33.625Z,12.50
2018-05-07T22:58:59.933Z,12.40
2018-05-07T23:01:27.091Z,12.40
2018-05-07T23:03:55.258Z,12.40
2018-05-07T23:06:23.516Z,12.30
2018-05-07T23:08:49.945Z,12.30
2018-05-07T23:11:16.295Z,12.20
2018-05-07T23:13:42.815Z,12.20
2018-05-07T23:16:09.241Z,12.20
2018-05-07T23:18:36.359Z,12.00
2018-05-07T23:21:02.731Z,12.00
2018-05-07T23:23:29.096Z,11.90
2018-05-07T23:25:56.267Z,11.80
2018-05-07T23:28:23.415Z,11.70
2018-05-07T23:30:49.727Z,11.60
2018-05-07T23:33:16.175Z,11.60
2018-05-07T23:35:42.873Z,11.60
2018-05-07T23:38:09.316Z,11.60
2018-05-07T23:40:36.495Z,11.50
2018-05-07T23:43:03.003Z,11.60
2018-05-07T23:45:29.404Z,11.50
2018-05-07T23:47:55.837Z,11.40
2018-05-07T23:50:22.285Z,11.30
2018-05-07T23:52:48.736Z,11.20
2018-05-07T23:55:15.103Z,11.30
2018-05-07T23:57:41.667Z,11.20
